sensor_id;sensor_type;location;lat;lon;timestamp;pressure;altitude;pressure_sealevel;temperature;humidity
53526;BME280;40551;50.478;19.378;2023-10-08T00:02:20;97671.40;;;12.05;90.99
53526;BME280;40551;50.478;19.378;2023-10-08T00:04:56;97668.77;;;12.00;90.97
53526;BME280;40551;50.478;19.378;2023-10-08T00:07:28;97669.44;;;11.95;91.06
53526;BME280;40551;50.478;19.378;2023-10-08T00:09:59;97672.25;;;11.89;91.19
53526;BME280;40551;50.478;19.378;2023-10-08T00:12:32;97674.05;;;11.83;91.12
53526;BME280;40551;50.478;19.378;2023-10-08T00:15:07;97677.95;;;11.78;91.40
53526;BME280;40551;50.478;19.378;2023-10-08T00:17:41;97675.37;;;11.74;91.60
53526;BME280;40551;50.478;19.378;2023-10-08T00:20:16;97679.50;;;11.68;91.36
53526;BME280;40551;50.478;19.378;2023-10-08T00:22:56;97678.71;;;11.61;91.22
53526;BME280;40551;50.478;19.378;2023-10-08T00:25:27;97674.72;;;11.54;91.29
53526;BME280;40551;50.478;19.378;2023-10-08T00:28:01;97680.02;;;11.48;91.14
53526;BME280;40551;50.478;19.378;2023-10-08T00:30:33;97689.56;;;11.42;91.34
53526;BME280;40551;50.478;19.378;2023-10-08T00:33:04;97700.32;;;11.33;90.78
53526;BME280;40551;50.478;19.378;2023-10-08T00:35:39;97708.13;;;11.20;90.59
53526;BME280;40551;50.478;19.378;2023-10-08T00:38:12;97717.60;;;11.06;90.46
53526;BME280;40551;50.478;19.378;2023-10-08T00:40:50;97719.05;;;10.94;90.32
53526;BME280;40551;50.478;19.378;2023-10-08T00:43:32;97716.80;;;10.84;90.60
53526;BME280;40551;50.478;19.378;2023-10-08T00:46:06;97720.69;;;10.74;90.75
53526;BME280;40551;50.478;19.378;2023-10-08T00:48:49;97718.21;;;10.63;90.68
53526;BME280;40551;50.478;19.378;2023-10-08T00:51:22;97718.95;;;10.55;90.74
53526;BME280;40551;50.478;19.378;2023-10-08T00:54:03;97717.50;;;10.48;90.94
53526;BME280;40551;50.478;19.378;2023-10-08T00:56:38;97718.24;;;10.43;91.01
53526;BME280;40551;50.478;19.378;2023-10-08T00:59:20;97711.40;;;10.38;91.13
53526;BME280;40551;50.478;19.378;2023-10-08T01:01:54;97700.27;;;10.33;91.19
53526;BME280;40551;50.478;19.378;2023-10-08T01:04:32;97703.83;;;10.30;91.33
53526;BME280;40551;50.478;19.378;2023-10-08T01:07:06;97713.33;;;10.27;91.33
53526;BME280;40551;50.478;19.378;2023-10-08T01:09:44;97710.60;;;10.26;91.69
53526;BME280;40551;50.478;19.378;2023-10-08T01:12:22;97708.73;;;10.25;91.77
53526;BME280;40551;50.478;19.378;2023-10-08T01:14:57;97701.41;;;10.24;91.57
53526;BME280;40551;50.478;19.378;2023-10-08T01:17:37;97705.16;;;10.22;91.66
53526;BME280;40551;50.478;19.378;2023-10-08T01:20:19;97719.50;;;10.19;91.45
53526;BME280;40551;50.478;19.378;2023-10-08T01:23:05;97726.96;;;10.13;91.51
53526;BME280;40551;50.478;19.378;2023-10-08T01:25:45;97744.55;;;10.08;91.46
53526;BME280;40551;50.478;19.378;2023-10-08T01:28:21;97749.02;;;10.05;91.83
53526;BME280;40551;50.478;19.378;2023-10-08T01:31:02;97747.44;;;10.03;91.93
53526;BME280;40551;50.478;19.378;2023-10-08T01:33:35;97733.46;;;10.00;91.82
53526;BME280;40551;50.478;19.378;2023-10-08T01:36:09;97714.86;;;9.99;92.21
53526;BME280;40551;50.478;19.378;2023-10-08T01:38:43;97715.98;;;9.98;91.98
53526;BME280;40551;50.478;19.378;2023-10-08T01:41:19;97720.82;;;9.98;92.11
53526;BME280;40551;50.478;19.378;2023-10-08T01:43:59;97733.62;;;9.98;92.26
53526;BME280;40551;50.478;19.378;2023-10-08T01:46:30;97735.58;;;10.02;92.45
53526;BME280;40551;50.478;19.378;2023-10-08T01:49:03;97724.59;;;10.03;92.20
53526;BME280;40551;50.478;19.378;2023-10-08T01:51:39;97719.23;;;10.00;92.06
53526;BME280;40551;50.478;19.378;2023-10-08T01:54:17;97716.31;;;9.98;92.01
53526;BME280;40551;50.478;19.378;2023-10-08T01:56:52;97719.59;;;9.96;92.03
53526;BME280;40551;50.478;19.378;2023-10-08T01:59:22;97722.65;;;9.95;92.17
53526;BME280;40551;50.478;19.378;2023-10-08T02:01:54;97717.03;;;9.92;92.10
53526;BME280;40551;50.478;19.378;2023-10-08T02:04:27;97713.54;;;9.90;92.05
53526;BME280;40551;50.478;19.378;2023-10-08T02:06:59;97724.44;;;9.90;92.28
53526;BME280;40551;50.478;19.378;2023-10-08T02:09:31;97737.58;;;9.89;92.31
53526;BME280;40551;50.478;19.378;2023-10-08T02:12:04;97748.67;;;9.87;92.31
53526;BME280;40551;50.478;19.378;2023-10-08T02:14:36;97750.00;;;9.86;92.45
53526;BME280;40551;50.478;19.378;2023-10-08T02:17:07;97747.95;;;9.85;92.36
53526;BME280;40551;50.478;19.378;2023-10-08T02:19:41;97740.73;;;9.83;92.39
53526;BME280;40551;50.478;19.378;2023-10-08T02:22:13;97749.96;;;9.78;92.12
53526;BME280;40551;50.478;19.378;2023-10-08T02:24:43;97742.54;;;9.72;92.22
53526;BME280;40551;50.478;19.378;2023-10-08T02:27:14;97735.54;;;9.66;92.35
53526;BME280;40551;50.478;19.378;2023-10-08T02:29:46;97732.61;;;9.64;92.42
53526;BME280;40551;50.478;19.378;2023-10-08T02:32:18;97732.30;;;9.62;92.32
53526;BME280;40551;50.478;19.378;2023-10-08T02:34:53;97729.59;;;9.59;92.46
53526;BME280;40551;50.478;19.378;2023-10-08T02:37:24;97731.45;;;9.58;92.60
53526;BME280;40551;50.478;19.378;2023-10-08T02:39:56;97730.63;;;9.57;92.54
53526;BME280;40551;50.478;19.378;2023-10-08T02:42:28;97722.30;;;9.55;92.72
53526;BME280;40551;50.478;19.378;2023-10-08T02:45:00;97728.67;;;9.54;92.64
53526;BME280;40551;50.478;19.378;2023-10-08T02:47:33;97743.02;;;9.52;92.70
53526;BME280;40551;50.478;19.378;2023-10-08T02:50:06;97737.40;;;9.49;92.62
53526;BME280;40551;50.478;19.378;2023-10-08T02:52:39;97742.69;;;9.47;92.77
53526;BME280;40551;50.478;19.378;2023-10-08T02:55:09;97745.54;;;9.47;92.86
53526;BME280;40551;50.478;19.378;2023-10-08T02:57:54;97750.40;;;9.44;92.93
53526;BME280;40551;50.478;19.378;2023-10-08T03:00:26;97745.66;;;9.45;93.05
53526;BME280;40551;50.478;19.378;2023-10-08T03:03:01;97749.27;;;9.47;93.11
53526;BME280;40551;50.478;19.378;2023-10-08T03:05:40;97751.87;;;9.49;93.09
53526;BME280;40551;50.478;19.378;2023-10-08T03:08:15;97756.80;;;9.51;93.08
53526;BME280;40551;50.478;19.378;2023-10-08T03:10:51;97756.70;;;9.52;92.83
53526;BME280;40551;50.478;19.378;2023-10-08T03:13:27;97765.84;;;9.52;92.85
53526;BME280;40551;50.478;19.378;2023-10-08T03:15:59;97771.88;;;9.52;92.76
53526;BME280;40551;50.478;19.378;2023-10-08T03:18:39;97778.59;;;9.50;92.57
53526;BME280;40551;50.478;19.378;2023-10-08T03:21:13;97783.32;;;9.48;92.63
53526;BME280;40551;50.478;19.378;2023-10-08T03:23:55;97796.46;;;9.46;92.65
53526;BME280;40551;50.478;19.378;2023-10-08T03:26:29;97811.20;;;9.44;92.58
53526;BME280;40551;50.478;19.378;2023-10-08T03:29:05;97819.67;;;9.42;92.79
53526;BME280;40551;50.478;19.378;2023-10-08T03:31:39;97824.15;;;9.40;92.75
53526;BME280;40551;50.478;19.378;2023-10-08T03:34:22;97829.80;;;9.41;92.92
53526;BME280;40551;50.478;19.378;2023-10-08T03:36:58;97824.65;;;9.39;92.79
53526;BME280;40551;50.478;19.378;2023-10-08T03:39:36;97816.06;;;9.38;92.94
53526;BME280;40551;50.478;19.378;2023-10-08T03:42:23;97818.92;;;9.37;92.97
53526;BME280;40551;50.478;19.378;2023-10-08T03:44:55;97822.97;;;9.36;92.86
53526;BME280;40551;50.478;19.378;2023-10-08T03:47:27;97828.70;;;9.33;93.02
53526;BME280;40551;50.478;19.378;2023-10-08T03:50:03;97836.63;;;9.34;93.38
53526;BME280;40551;50.478;19.378;2023-10-08T03:52:37;97843.44;;;9.35;93.36
53526;BME280;40551;50.478;19.378;2023-10-08T03:55:09;97849.56;;;9.37;93.33
53526;BME280;40551;50.478;19.378;2023-10-08T03:57:52;97847.84;;;9.37;93.25
53526;BME280;40551;50.478;19.378;2023-10-08T04:00:28;97855.23;;;9.37;93.17
53526;BME280;40551;50.478;19.378;2023-10-08T04:03:02;97860.94;;;9.37;93.16
53526;BME280;40551;50.478;19.378;2023-10-08T04:05:39;97864.70;;;9.38;93.25
53526;BME280;40551;50.478;19.378;2023-10-08T04:08:30;97875.48;;;9.39;93.39
53526;BME280;40551;50.478;19.378;2023-10-08T04:11:14;97882.55;;;9.40;93.32
53526;BME280;40551;50.478;19.378;2023-10-08T04:14:01;97885.23;;;9.36;92.97
53526;BME280;40551;50.478;19.378;2023-10-08T04:16:34;97886.25;;;9.34;93.07
53526;BME280;40551;50.478;19.378;2023-10-08T04:19:07;97884.73;;;9.32;92.96
53526;BME280;40551;50.478;19.378;2023-10-08T04:21:40;97893.79;;;9.31;93.08
53526;BME280;40551;50.478;19.378;2023-10-08T04:24:13;97892.89;;;9.29;92.91
53526;BME280;40551;50.478;19.378;2023-10-08T04:26:45;97885.94;;;9.28;93.05
53526;BME280;40551;50.478;19.378;2023-10-08T04:29:17;97890.10;;;9.28;93.26
53526;BME280;40551;50.478;19.378;2023-10-08T04:31:53;97888.27;;;9.29;93.16
53526;BME280;40551;50.478;19.378;2023-10-08T04:34:38;97893.16;;;9.28;93.28
53526;BME280;40551;50.478;19.378;2023-10-08T04:37:15;97896.46;;;9.30;93.33
53526;BME280;40551;50.478;19.378;2023-10-08T04:39:51;97894.58;;;9.30;93.25
53526;BME280;40551;50.478;19.378;2023-10-08T04:42:29;97901.10;;;9.31;93.02
53526;BME280;40551;50.478;19.378;2023-10-08T04:45:01;97911.05;;;9.30;93.03
53526;BME280;40551;50.478;19.378;2023-10-08T04:47:33;97913.86;;;9.27;93.12
53526;BME280;40551;50.478;19.378;2023-10-08T04:50:07;97914.50;;;9.24;92.93
53526;BME280;40551;50.478;19.378;2023-10-08T04:52:45;97929.20;;;9.21;93.18
53526;BME280;40551;50.478;19.378;2023-10-08T04:55:28;97940.46;;;9.21;93.35
53526;BME280;40551;50.478;19.378;2023-10-08T04:58:00;97948.21;;;9.22;93.50
53526;BME280;40551;50.478;19.378;2023-10-08T05:00:42;97961.77;;;9.21;93.38
53526;BME280;40551;50.478;19.378;2023-10-08T05:03:21;97968.46;;;9.22;93.61
53526;BME280;40551;50.478;19.378;2023-10-08T05:05:59;97963.06;;;9.22;93.78
53526;BME280;40551;50.478;19.378;2023-10-08T05:08:40;97961.73;;;9.23;93.71
53526;BME280;40551;50.478;19.378;2023-10-08T05:11:28;97954.07;;;9.24;93.82
53526;BME280;40551;50.478;19.378;2023-10-08T05:14:17;97958.52;;;9.25;93.95
53526;BME280;40551;50.478;19.378;2023-10-08T05:16:59;97960.02;;;9.26;93.91
53526;BME280;40551;50.478;19.378;2023-10-08T05:19:34;97940.71;;;9.25;93.67
53526;BME280;40551;50.478;19.378;2023-10-08T05:22:22;97942.88;;;9.22;93.74
53526;BME280;40551;50.478;19.378;2023-10-08T05:25:15;97975.58;;;9.22;93.97
53526;BME280;40551;50.478;19.378;2023-10-08T05:28:06;97988.85;;;9.22;94.08
53526;BME280;40551;50.478;19.378;2023-10-08T05:30:41;97973.33;;;9.24;94.26
53526;BME280;40551;50.478;19.378;2023-10-08T05:33:24;97961.58;;;9.23;94.10
53526;BME280;40551;50.478;19.378;2023-10-08T05:35:56;97956.23;;;9.23;94.23
53526;BME280;40551;50.478;19.378;2023-10-08T05:38:40;97966.39;;;9.24;94.19
53526;BME280;40551;50.478;19.378;2023-10-08T05:41:31;97977.70;;;9.23;94.23
53526;BME280;40551;50.478;19.378;2023-10-08T05:44:22;97984.47;;;9.23;94.28
53526;BME280;40551;50.478;19.378;2023-10-08T05:47:09;97997.40;;;9.23;94.30
53526;BME280;40551;50.478;19.378;2023-10-08T05:49:55;98018.52;;;9.23;94.30
53526;BME280;40551;50.478;19.378;2023-10-08T05:52:52;98024.38;;;9.26;94.32
53526;BME280;40551;50.478;19.378;2023-10-08T05:55:32;98010.27;;;9.29;94.42
53526;BME280;40551;50.478;19.378;2023-10-08T05:58:18;98034.73;;;9.31;94.40
53526;BME280;40551;50.478;19.378;2023-10-08T06:01:05;98037.69;;;9.33;94.42
53526;BME280;40551;50.478;19.378;2023-10-08T06:03:56;98035.66;;;9.34;94.35
53526;BME280;40551;50.478;19.378;2023-10-08T06:06:51;98053.02;;;9.34;94.38
53526;BME280;40551;50.478;19.378;2023-10-08T06:09:42;98063.48;;;9.35;94.51
53526;BME280;40551;50.478;19.378;2023-10-08T06:12:31;98062.36;;;9.36;94.39
53526;BME280;40551;50.478;19.378;2023-10-08T06:15:15;98067.05;;;9.38;94.37
53526;BME280;40551;50.478;19.378;2023-10-08T06:17:57;98071.90;;;9.38;94.11
53526;BME280;40551;50.478;19.378;2023-10-08T06:20:37;98078.27;;;9.41;94.43
53526;BME280;40551;50.478;19.378;2023-10-08T06:23:12;98086.76;;;9.42;94.51
53526;BME280;40551;50.478;19.378;2023-10-08T06:25:49;98089.38;;;9.44;94.59
53526;BME280;40551;50.478;19.378;2023-10-08T06:28:27;98091.87;;;9.46;94.58
53526;BME280;40551;50.478;19.378;2023-10-08T06:30:59;98089.75;;;9.46;94.41
53526;BME280;40551;50.478;19.378;2023-10-08T06:33:31;98094.44;;;9.48;94.63
53526;BME280;40551;50.478;19.378;2023-10-08T06:36:05;98098.43;;;9.50;94.65
53526;BME280;40551;50.478;19.378;2023-10-08T06:38:45;98108.67;;;9.52;94.61
53526;BME280;40551;50.478;19.378;2023-10-08T06:41:19;98114.24;;;9.49;94.25
53526;BME280;40551;50.478;19.378;2023-10-08T06:44:19;98123.84;;;9.46;94.25
53526;BME280;40551;50.478;19.378;2023-10-08T06:46:49;98125.20;;;9.45;94.45
53526;BME280;40551;50.478;19.378;2023-10-08T06:49:23;98128.81;;;9.41;94.27
53526;BME280;40551;50.478;19.378;2023-10-08T06:51:55;98136.58;;;9.39;94.38
53526;BME280;40551;50.478;19.378;2023-10-08T06:54:27;98138.88;;;9.38;94.55
53526;BME280;40551;50.478;19.378;2023-10-08T06:57:03;98143.58;;;9.38;94.63
53526;BME280;40551;50.478;19.378;2023-10-08T06:59:44;98150.98;;;9.38;94.74
53526;BME280;40551;50.478;19.378;2023-10-08T07:02:16;98146.39;;;9.40;94.90
53526;BME280;40551;50.478;19.378;2023-10-08T07:04:49;98145.65;;;9.40;94.62
53526;BME280;40551;50.478;19.378;2023-10-08T07:07:22;98149.39;;;9.39;94.66
53526;BME280;40551;50.478;19.378;2023-10-08T07:09:52;98159.52;;;9.40;94.80
53526;BME280;40551;50.478;19.378;2023-10-08T07:12:27;98165.48;;;9.39;94.78
53526;BME280;40551;50.478;19.378;2023-10-08T07:15:00;98184.39;;;9.38;94.45
53526;BME280;40551;50.478;19.378;2023-10-08T07:17:34;98189.61;;;9.36;94.36
53526;BME280;40551;50.478;19.378;2023-10-08T07:20:12;98197.52;;;9.34;94.10
53526;BME280;40551;50.478;19.378;2023-10-08T07:22:52;98189.31;;;9.33;94.18
53526;BME280;40551;50.478;19.378;2023-10-08T07:25:25;98191.23;;;9.35;94.18
53526;BME280;40551;50.478;19.378;2023-10-08T07:28:07;98200.30;;;9.39;94.31
53526;BME280;40551;50.478;19.378;2023-10-08T07:30:42;98210.27;;;9.48;94.76
53526;BME280;40551;50.478;19.378;2023-10-08T07:33:15;98217.80;;;9.54;94.62
53526;BME280;40551;50.478;19.378;2023-10-08T07:35:49;98218.09;;;9.54;93.76
53526;BME280;40551;50.478;19.378;2023-10-08T07:38:35;98224.30;;;9.53;93.07
53526;BME280;40551;50.478;19.378;2023-10-08T07:41:05;98224.23;;;9.58;94.01
53526;BME280;40551;50.478;19.378;2023-10-08T07:43:37;98231.32;;;9.65;93.83
53526;BME280;40551;50.478;19.378;2023-10-08T07:46:07;98234.15;;;9.75;94.20
53526;BME280;40551;50.478;19.378;2023-10-08T07:48:39;98239.41;;;9.81;94.22
53526;BME280;40551;50.478;19.378;2023-10-08T07:51:14;98246.88;;;9.85;93.92
53526;BME280;40551;50.478;19.378;2023-10-08T07:53:48;98248.56;;;9.86;93.54
53526;BME280;40551;50.478;19.378;2023-10-08T07:56:20;98249.85;;;9.87;93.03
53526;BME280;40551;50.478;19.378;2023-10-08T07:58:52;98254.69;;;9.87;93.01
53526;BME280;40551;50.478;19.378;2023-10-08T08:01:26;98262.38;;;9.84;92.67
53526;BME280;40551;50.478;19.378;2023-10-08T08:03:58;98269.55;;;9.83;92.24
53526;BME280;40551;50.478;19.378;2023-10-08T08:06:30;98268.17;;;9.92;93.27
53526;BME280;40551;50.478;19.378;2023-10-08T08:09:05;98270.38;;;9.99;92.36
53526;BME280;40551;50.478;19.378;2023-10-08T08:11:48;98277.34;;;9.96;90.51
53526;BME280;40551;50.478;19.378;2023-10-08T08:14:20;98283.27;;;9.94;90.30
53526;BME280;40551;50.478;19.378;2023-10-08T08:16:55;98288.21;;;9.97;90.37
53526;BME280;40551;50.478;19.378;2023-10-08T08:19:27;98291.65;;;10.00;90.35
53526;BME280;40551;50.478;19.378;2023-10-08T08:22:01;98301.98;;;10.03;90.23
53526;BME280;40551;50.478;19.378;2023-10-08T08:24:33;98303.65;;;10.06;90.71
53526;BME280;40551;50.478;19.378;2023-10-08T08:27:07;98300.84;;;10.06;90.57
53526;BME280;40551;50.478;19.378;2023-10-08T08:29:42;98307.61;;;10.06;90.50
53526;BME280;40551;50.478;19.378;2023-10-08T08:32:16;98301.98;;;10.05;90.35
53526;BME280;40551;50.478;19.378;2023-10-08T08:34:52;98304.89;;;9.99;89.20
53526;BME280;40551;50.478;19.378;2023-10-08T08:37:24;98301.50;;;9.91;88.56
53526;BME280;40551;50.478;19.378;2023-10-08T08:40:00;98305.25;;;9.83;87.81
53526;BME280;40551;50.478;19.378;2023-10-08T08:42:35;98310.54;;;9.75;87.64
53526;BME280;40551;50.478;19.378;2023-10-08T08:45:11;98315.31;;;9.76;87.72
53526;BME280;40551;50.478;19.378;2023-10-08T08:47:44;98323.89;;;9.75;87.10
53526;BME280;40551;50.478;19.378;2023-10-08T08:50:17;98331.80;;;9.78;86.32
53526;BME280;40551;50.478;19.378;2023-10-08T08:52:50;98334.06;;;9.82;85.03
53526;BME280;40551;50.478;19.378;2023-10-08T08:55:22;98338.77;;;9.86;84.16
53526;BME280;40551;50.478;19.378;2023-10-08T08:57:56;98343.94;;;9.91;82.85
53526;BME280;40551;50.478;19.378;2023-10-08T09:00:31;98343.25;;;9.96;82.28
53526;BME280;40551;50.478;19.378;2023-10-08T09:03:03;98347.38;;;10.03;81.35
53526;BME280;40551;50.478;19.378;2023-10-08T09:05:37;98356.02;;;10.08;80.41
53526;BME280;40551;50.478;19.378;2023-10-08T09:08:11;98356.98;;;10.11;78.73
53526;BME280;40551;50.478;19.378;2023-10-08T09:10:47;98359.00;;;10.14;77.96
53526;BME280;40551;50.478;19.378;2023-10-08T09:13:23;98359.44;;;10.19;78.52
53526;BME280;40551;50.478;19.378;2023-10-08T09:16:06;98360.17;;;10.23;77.71
53526;BME280;40551;50.478;19.378;2023-10-08T09:18:38;98353.34;;;10.29;78.54
53526;BME280;40551;50.478;19.378;2023-10-08T09:21:14;98355.92;;;10.38;78.00
53526;BME280;40551;50.478;19.378;2023-10-08T09:23:50;98346.91;;;10.47;77.32
53526;BME280;40551;50.478;19.378;2023-10-08T09:26:25;98352.86;;;10.50;76.62
53526;BME280;40551;50.478;19.378;2023-10-08T09:28:57;98360.98;;;10.60;77.44
53526;BME280;40551;50.478;19.378;2023-10-08T09:31:32;98366.20;;;10.66;74.93
53526;BME280;40551;50.478;19.378;2023-10-08T09:34:06;98369.05;;;10.70;74.00
53526;BME280;40551;50.478;19.378;2023-10-08T09:36:36;98365.77;;;10.73;74.29
53526;BME280;40551;50.478;19.378;2023-10-08T09:39:09;98368.10;;;10.81;74.84
53526;BME280;40551;50.478;19.378;2023-10-08T09:41:51;98369.85;;;10.87;74.12
53526;BME280;40551;50.478;19.378;2023-10-08T09:44:25;98374.48;;;10.93;73.61
53526;BME280;40551;50.478;19.378;2023-10-08T09:47:02;98376.53;;;10.97;74.35
53526;BME280;40551;50.478;19.378;2023-10-08T09:49:41;98383.08;;;11.06;73.04
53526;BME280;40551;50.478;19.378;2023-10-08T09:52:13;98389.68;;;11.04;71.80
53526;BME280;40551;50.478;19.378;2023-10-08T09:54:51;98391.08;;;10.95;70.12
53526;BME280;40551;50.478;19.378;2023-10-08T09:57:24;98389.96;;;10.87;70.02
53526;BME280;40551;50.478;19.378;2023-10-08T09:59:57;98397.27;;;10.81;70.80
53526;BME280;40551;50.478;19.378;2023-10-08T10:02:29;98401.79;;;10.83;71.15
53526;BME280;40551;50.478;19.378;2023-10-08T10:05:03;98403.00;;;10.89;71.60
53526;BME280;40551;50.478;19.378;2023-10-08T10:07:36;98407.83;;;10.96;70.55
53526;BME280;40551;50.478;19.378;2023-10-08T10:10:26;98408.61;;;10.99;70.03
53526;BME280;40551;50.478;19.378;2023-10-08T10:13:00;98406.94;;;11.07;71.28
53526;BME280;40551;50.478;19.378;2023-10-08T10:15:32;98410.77;;;11.15;69.65
53526;BME280;40551;50.478;19.378;2023-10-08T10:18:14;98410.90;;;11.18;67.71
53526;BME280;40551;50.478;19.378;2023-10-08T10:20:51;98414.80;;;11.19;67.39
53526;BME280;40551;50.478;19.378;2023-10-08T10:23:37;98424.59;;;11.23;67.16
53526;BME280;40551;50.478;19.378;2023-10-08T10:26:24;98428.25;;;11.27;66.35
53526;BME280;40551;50.478;19.378;2023-10-08T10:29:22;98427.09;;;11.28;66.02
53526;BME280;40551;50.478;19.378;2023-10-08T10:31:57;98422.40;;;11.32;66.27
53526;BME280;40551;50.478;19.378;2023-10-08T10:34:29;98426.88;;;11.33;65.54
53526;BME280;40551;50.478;19.378;2023-10-08T10:37:05;98425.02;;;11.35;64.76
53526;BME280;40551;50.478;19.378;2023-10-08T10:39:40;98424.17;;;11.30;64.68
53526;BME280;40551;50.478;19.378;2023-10-08T10:42:12;98427.30;;;11.32;64.77
53526;BME280;40551;50.478;19.378;2023-10-08T10:44:51;98430.64;;;11.36;64.80
53526;BME280;40551;50.478;19.378;2023-10-08T10:47:25;98429.36;;;11.43;65.23
53526;BME280;40551;50.478;19.378;2023-10-08T10:49:58;98434.45;;;11.49;63.41
53526;BME280;40551;50.478;19.378;2023-10-08T10:52:56;98432.27;;;11.44;62.38
53526;BME280;40551;50.478;19.378;2023-10-08T10:55:29;98433.61;;;11.46;63.58
53526;BME280;40551;50.478;19.378;2023-10-08T10:58:04;98443.02;;;11.50;63.44
53526;BME280;40551;50.478;19.378;2023-10-08T11:00:44;98446.77;;;11.57;64.08
53526;BME280;40551;50.478;19.378;2023-10-08T11:03:19;98447.79;;;11.62;62.56
53526;BME280;40551;50.478;19.378;2023-10-08T11:05:57;98457.70;;;11.62;61.31
53526;BME280;40551;50.478;19.378;2023-10-08T11:08:36;98463.77;;;11.60;61.36
53526;BME280;40551;50.478;19.378;2023-10-08T11:11:10;98462.48;;;11.59;61.34
53526;BME280;40551;50.478;19.378;2023-10-08T11:13:42;98460.07;;;11.58;61.48
53526;BME280;40551;50.478;19.378;2023-10-08T11:16:17;98458.51;;;11.60;61.26
53526;BME280;40551;50.478;19.378;2023-10-08T11:18:52;98471.86;;;11.63;61.81
53526;BME280;40551;50.478;19.378;2023-10-08T11:21:28;98474.08;;;11.66;61.12
53526;BME280;40551;50.478;19.378;2023-10-08T11:24:05;98472.56;;;11.63;59.57
53526;BME280;40551;50.478;19.378;2023-10-08T11:26:40;98467.17;;;11.61;60.56
53526;BME280;40551;50.478;19.378;2023-10-08T11:29:32;98465.52;;;11.60;59.21
53526;BME280;40551;50.478;19.378;2023-10-08T11:32:04;98467.16;;;11.59;59.70
53526;BME280;40551;50.478;19.378;2023-10-08T11:34:39;98465.89;;;11.57;60.25
53526;BME280;40551;50.478;19.378;2023-10-08T11:37:12;98460.19;;;11.55;59.31
53526;BME280;40551;50.478;19.378;2023-10-08T11:39:51;98461.84;;;11.49;59.12
53526;BME280;40551;50.478;19.378;2023-10-08T11:42:23;98465.16;;;11.47;59.57
53526;BME280;40551;50.478;19.378;2023-10-08T11:45:15;98465.02;;;11.45;59.66
53526;BME280;40551;50.478;19.378;2023-10-08T11:47:49;98461.33;;;11.43;60.14
53526;BME280;40551;50.478;19.378;2023-10-08T11:50:27;98460.19;;;11.40;59.08
53526;BME280;40551;50.478;19.378;2023-10-08T11:53:02;98467.00;;;11.35;57.61
53526;BME280;40551;50.478;19.378;2023-10-08T11:55:36;98475.09;;;11.27;55.89
53526;BME280;40551;50.478;19.378;2023-10-08T11:58:10;98484.55;;;11.20;55.79
53526;BME280;40551;50.478;19.378;2023-10-08T12:00:44;98489.70;;;11.16;56.09
53526;BME280;40551;50.478;19.378;2023-10-08T12:03:18;98495.21;;;11.13;56.02
53526;BME280;40551;50.478;19.378;2023-10-08T12:05:51;98498.38;;;11.12;56.48
53526;BME280;40551;50.478;19.378;2023-10-08T12:08:30;98496.69;;;11.12;58.58
53526;BME280;40551;50.478;19.378;2023-10-08T12:11:10;98502.73;;;11.05;58.71
53526;BME280;40551;50.478;19.378;2023-10-08T12:13:43;98506.07;;;10.99;58.09
53526;BME280;40551;50.478;19.378;2023-10-08T12:16:16;98505.68;;;10.95;55.97
53526;BME280;40551;50.478;19.378;2023-10-08T12:18:52;98502.66;;;10.89;55.47
53526;BME280;40551;50.478;19.378;2023-10-08T12:21:29;98503.73;;;10.82;53.58
53526;BME280;40551;50.478;19.378;2023-10-08T12:24:01;98515.63;;;10.74;53.04
53526;BME280;40551;50.478;19.378;2023-10-08T12:26:36;98512.86;;;10.70;53.24
53526;BME280;40551;50.478;19.378;2023-10-08T12:29:07;98514.98;;;10.67;53.21
53526;BME280;40551;50.478;19.378;2023-10-08T12:31:40;98516.36;;;10.60;53.04
53526;BME280;40551;50.478;19.378;2023-10-08T12:34:12;98517.08;;;10.53;54.44
53526;BME280;40551;50.478;19.378;2023-10-08T12:36:44;98513.77;;;10.49;54.64
53526;BME280;40551;50.478;19.378;2023-10-08T12:39:16;98512.61;;;10.46;55.18
53526;BME280;40551;50.478;19.378;2023-10-08T12:41:48;98507.20;;;10.46;55.23
53526;BME280;40551;50.478;19.378;2023-10-08T12:44:24;98507.55;;;10.47;55.56
53526;BME280;40551;50.478;19.378;2023-10-08T12:46:57;98509.45;;;10.44;56.56
53526;BME280;40551;50.478;19.378;2023-10-08T12:49:30;98513.90;;;10.42;56.36
53526;BME280;40551;50.478;19.378;2023-10-08T12:52:04;98507.59;;;10.41;57.60
53526;BME280;40551;50.478;19.378;2023-10-08T12:54:36;98513.09;;;10.35;56.45
53526;BME280;40551;50.478;19.378;2023-10-08T12:57:16;98513.75;;;10.33;56.44
53526;BME280;40551;50.478;19.378;2023-10-08T12:59:49;98511.91;;;10.32;56.60
53526;BME280;40551;50.478;19.378;2023-10-08T13:02:22;98513.84;;;10.30;56.92
53526;BME280;40551;50.478;19.378;2023-10-08T13:04:58;98514.67;;;10.25;57.30
53526;BME280;40551;50.478;19.378;2023-10-08T13:07:30;98516.89;;;10.21;56.43
53526;BME280;40551;50.478;19.378;2023-10-08T13:10:10;98522.27;;;10.19;56.36
53526;BME280;40551;50.478;19.378;2023-10-08T13:12:45;98527.65;;;10.16;57.49
53526;BME280;40551;50.478;19.378;2023-10-08T13:15:16;98530.86;;;10.13;58.02
53526;BME280;40551;50.478;19.378;2023-10-08T13:17:48;98525.52;;;10.08;56.03
53526;BME280;40551;50.478;19.378;2023-10-08T13:20:21;98532.79;;;10.06;55.21
53526;BME280;40551;50.478;19.378;2023-10-08T13:22:56;98537.94;;;10.04;54.44
53526;BME280;40551;50.478;19.378;2023-10-08T13:25:26;98540.98;;;10.03;55.10
53526;BME280;40551;50.478;19.378;2023-10-08T13:27:58;98542.67;;;9.98;55.95
53526;BME280;40551;50.478;19.378;2023-10-08T13:30:30;98542.05;;;9.95;54.23
53526;BME280;40551;50.478;19.378;2023-10-08T13:33:05;98542.37;;;9.93;53.23
53526;BME280;40551;50.478;19.378;2023-10-08T13:35:40;98544.13;;;9.91;52.42
53526;BME280;40551;50.478;19.378;2023-10-08T13:38:12;98546.52;;;9.89;52.23
53526;BME280;40551;50.478;19.378;2023-10-08T13:40:47;98549.73;;;9.87;52.12
53526;BME280;40551;50.478;19.378;2023-10-08T13:43:34;98550.88;;;9.86;51.97